Time;durP1;ratioP1;P1;durP2;ratioP2;P2;SDS_P1;SDS_P2;PMS_P1;PMS_P2;Temp;Humidity;BMP_temperature;BMP_pressure;BME280_temperature;BME280_humidity;BME280_pressure;Samples;Min_cycle;Max_cycle;Signal;HPM_P1;HPM_P2
2022/06/26 00:02:09;;;;;;;26.63;24.23;;;21.80;99.90;;;;;;5053086;28;20465;-76
2022/06/26 00:04:35;;;;;;;26.80;23.97;;;21.80;99.90;;;;;;5052955;28;20453;-77
2022/06/26 00:07:03;;;;;;;24.80;22.60;;;21.80;99.90;;;;;;5052838;28;20983;-76
2022/06/26 00:09:30;;;;;;;24.63;22.43;;;21.80;99.90;;;;;;5052976;28;20507;-76
2022/06/26 00:11:57;;;;;;;26.37;23.87;;;21.80;99.90;;;;;;5053487;28;20453;-77
2022/06/26 00:14:26;;;;;;;25.17;22.87;;;21.80;99.90;;;;;;5053289;28;20818;-78
2022/06/26 00:16:53;;;;;;;24.90;22.70;;;21.80;99.90;;;;;;5053715;28;20445;-76
2022/06/26 00:19:19;;;;;;;26.20;24.00;;;21.70;99.90;;;;;;5053211;28;20445;-77
2022/06/26 00:21:46;;;;;;;23.53;21.33;;;21.80;99.90;;;;;;5056376;28;20477;-76
2022/06/26 00:24:13;;;;;;;25.30;22.90;;;21.80;99.90;;;;;;5057393;28;20445;-76
2022/06/26 00:26:40;;;;;;;25.97;23.57;;;21.80;99.90;;;;;;5056770;28;20936;-77
2022/06/26 00:29:07;;;;;;;26.23;23.80;;;21.80;99.90;;;;;;5056948;28;20450;-76
2022/06/26 00:31:35;;;;;;;27.40;24.83;;;21.80;99.90;;;;;;5056638;28;20466;-76
2022/06/26 00:34:02;;;;;;;25.90;23.60;;;21.80;99.90;;;;;;5056726;28;20456;-76
2022/06/26 00:36:29;;;;;;;24.93;22.63;;;21.80;99.90;;;;;;5056500;28;20450;-76
2022/06/26 00:38:55;;;;;;;25.57;23.27;;;21.70;99.90;;;;;;5056630;28;20455;-76
2022/06/26 00:41:22;;;;;;;24.73;22.63;;;21.80;99.90;;;;;;5056489;28;20485;-75
2022/06/26 00:43:49;;;;;;;26.60;24.20;;;21.70;99.90;;;;;;5056269;28;20457;-77
2022/06/26 00:46:16;;;;;;;26.10;23.83;;;21.70;99.90;;;;;;5056563;28;20437;-75
2022/06/26 00:48:44;;;;;;;27.77;25.23;;;21.70;99.90;;;;;;5056658;28;20445;-75
2022/06/26 00:51:11;;;;;;;25.73;23.53;;;21.70;99.90;;;;;;5056492;28;20507;-75
2022/06/26 00:53:38;;;;;;;26.67;24.27;;;21.70;99.90;;;;;;5056323;28;20452;-77
2022/06/26 00:56:05;;;;;;;27.77;25.20;;;21.60;99.90;;;;;;5055927;28;20948;-77
2022/06/26 00:58:32;;;;;;;25.27;22.97;;;21.60;99.90;;;;;;5056313;28;20628;-75
2022/06/26 01:00:59;;;;;;;26.90;24.47;;;21.70;99.90;;;;;;5055465;28;20481;-75
2022/06/26 01:03:25;;;;;;;24.70;22.47;;;21.60;99.90;;;;;;5055871;28;20445;-76
2022/06/26 01:05:55;;;;;;;25.53;23.17;;;21.60;99.90;;;;;;5055973;28;20468;-75
2022/06/26 01:08:21;;;;;;;24.77;22.57;;;21.50;99.90;;;;;;5056311;28;20461;-76
2022/06/26 01:10:49;;;;;;;26.07;23.77;;;21.50;99.90;;;;;;5055475;28;21003;-76
2022/06/26 01:13:17;;;;;;;26.57;24.17;;;21.50;99.90;;;;;;5055674;28;20833;-75
2022/06/26 01:15:44;;;;;;;24.80;22.57;;;21.50;99.90;;;;;;5056111;28;20937;-75
2022/06/26 01:18:11;;;;;;;25.87;23.37;;;21.50;99.90;;;;;;5055821;28;20452;-76
2022/06/26 01:20:38;;;;;;;25.63;23.53;;;21.40;99.90;;;;;;5055491;28;20556;-75
2022/06/26 01:23:07;;;;;;;25.00;22.80;;;21.40;99.90;;;;;;5055563;28;20484;-76
2022/06/26 01:25:45;;;;;;;26.80;24.40;;;21.40;99.90;;;;;;5055717;28;20476;-75
2022/06/26 01:28:12;;;;;;;25.57;23.30;;;21.40;99.90;;;;;;5055391;28;20445;-76
2022/06/26 01:30:39;;;;;;;26.17;23.77;;;21.40;99.90;;;;;;5055168;28;20463;-75
2022/06/26 01:33:07;;;;;;;27.73;25.33;;;21.40;99.90;;;;;;5055437;28;20445;-75
2022/06/26 01:35:33;;;;;;;27.07;24.40;;;21.50;99.90;;;;;;5055917;28;20805;-76
2022/06/26 01:38:11;;;;;;;29.20;26.40;;;21.40;99.90;;;;;;5055909;28;20446;-76
2022/06/26 01:40:38;;;;;;;28.20;25.60;;;21.40;99.90;;;;;;5055464;28;20557;-75
2022/06/26 01:43:05;;;;;;;28.77;26.17;;;21.30;99.90;;;;;;5055394;28;20508;-77
2022/06/26 01:45:32;;;;;;;29.07;26.13;;;21.30;99.90;;;;;;5055201;28;20469;-78
2022/06/26 01:47:58;;;;;;;28.27;25.40;;;21.30;99.90;;;;;;5055476;28;20449;-77
2022/06/26 01:50:25;;;;;;;28.33;25.73;;;21.20;99.90;;;;;;5055130;28;20875;-77
2022/06/26 01:52:52;;;;;;;27.60;24.90;;;21.30;99.90;;;;;;5055326;28;20445;-77
2022/06/26 01:55:20;;;;;;;28.57;25.97;;;21.30;99.90;;;;;;5055231;28;20820;-77
2022/06/26 01:57:47;;;;;;;30.13;27.20;;;21.20;99.90;;;;;;5056031;28;20844;-77
2022/06/26 02:00:15;;;;;;;29.43;26.63;;;21.20;99.90;;;;;;5085795;22;20480;-78
2022/06/26 02:02:42;;;;;;;28.73;26.10;;;21.30;99.90;;;;;;5083681;28;20491;-78
2022/06/26 02:05:09;;;;;;;27.30;24.80;;;21.30;99.90;;;;;;5085944;28;20433;-78
2022/06/26 02:07:36;;;;;;;28.67;26.17;;;21.20;99.90;;;;;;5085978;28;20480;-77
2022/06/26 02:15:33;;;;;;;30.87;27.97;;;21.00;99.90;;;;;;5081900;28;20405;-79
2022/06/26 02:18:00;;;;;;;30.83;28.07;;;20.90;99.90;;;;;;5082088;28;20445;-79
2022/06/26 02:20:27;;;;;;;30.47;27.57;;;20.90;99.90;;;;;;5082609;28;20816;-78
2022/06/26 02:22:53;;;;;;;31.10;28.30;;;20.90;99.90;;;;;;5085576;28;20483;-77
2022/06/26 02:25:20;;;;;;;30.83;28.13;;;20.80;99.90;;;;;;5085180;28;20935;-77
2022/06/26 02:27:49;;;;;;;29.70;27.00;;;20.80;99.90;;;;;;5084410;28;20455;-78
2022/06/26 02:30:15;;;;;;;31.03;28.00;;;20.60;99.90;;;;;;5081359;28;20476;-77
2022/06/26 02:32:43;;;;;;;30.93;28.17;;;20.80;99.90;;;;;;5081000;28;20436;-79
2022/06/26 02:35:10;;;;;;;30.93;28.17;;;20.80;99.90;;;;;;5080117;28;20519;-79
2022/06/26 02:37:37;;;;;;;29.57;26.87;;;20.90;99.90;;;;;;5081312;28;20433;-80
2022/06/26 02:40:05;;;;;;;29.77;26.93;;;20.90;99.90;;;;;;5081663;28;20548;-79
2022/06/26 02:42:32;;;;;;;30.20;27.50;;;21.00;99.90;;;;;;5080480;28;20506;-79
2022/06/26 02:45:00;;;;;;;29.70;27.20;;;21.00;99.90;;;;;;5080089;28;20518;-80
2022/06/26 02:47:27;;;;;;;32.00;29.10;;;21.00;99.90;;;;;;5077995;28;20818;-77
2022/06/26 02:49:54;;;;;;;33.10;30.20;;;21.00;99.90;;;;;;5079070;28;20452;-78
2022/06/26 02:52:21;;;;;;;31.60;28.50;;;20.90;99.90;;;;;;5081692;28;20451;-78
2022/06/26 02:54:48;;;;;;;32.07;29.00;;;20.80;99.90;;;;;;5081888;28;20512;-78
2022/06/26 02:57:15;;;;;;;32.50;29.60;;;20.80;99.90;;;;;;5081591;28;20445;-78
2022/06/26 02:59:41;;;;;;;33.63;30.43;;;20.70;99.90;;;;;;5081238;28;20460;-78
2022/06/26 03:02:09;;;;;;;31.67;28.57;;;20.80;99.90;;;;;;5079049;28;20487;-79
2022/06/26 03:04:36;;;;;;;31.47;28.67;;;20.80;99.90;;;;;;5078759;28;20859;-80
2022/06/26 03:07:03;;;;;;;33.50;30.37;;;20.80;99.90;;;;;;5078906;28;20452;-80
2022/06/26 03:09:30;;;;;;;32.50;29.47;;;20.70;99.90;;;;;;5079579;28;20445;-78
2022/06/26 03:11:57;;;;;;;31.50;28.50;;;20.70;99.90;;;;;;5079114;28;20495;-78
2022/06/26 03:14:24;;;;;;;32.57;29.57;;;20.60;99.90;;;;;;5082159;28;20510;-79
2022/06/26 03:16:50;;;;;;;32.83;29.70;;;20.80;99.90;;;;;;5083405;28;20562;-79
2022/06/26 03:19:18;;;;;;;32.30;29.30;;;20.50;99.90;;;;;;5081425;28;21005;-79
2022/06/26 03:21:45;;;;;;;32.00;29.20;;;20.80;99.90;;;;;;5081949;28;20475;-79
2022/06/26 03:24:12;;;;;;;31.90;28.87;;;20.80;99.90;;;;;;5081867;28;21039;-79
2022/06/26 03:26:39;;;;;;;32.30;29.10;;;21.20;99.90;;;;;;5082525;28;20452;-79
2022/06/26 03:29:08;;;;;;;31.10;28.30;;;20.90;99.90;;;;;;5082070;28;20449;-79
2022/06/26 03:31:35;;;;;;;30.70;28.10;;;20.90;99.90;;;;;;5082059;28;20464;-79
2022/06/26 03:34:03;;;;;;;31.77;28.87;;;21.00;99.90;;;;;;5083260;28;20453;-79
2022/06/26 03:36:32;;;;;;;31.27;28.50;;;21.10;99.90;;;;;;5082410;28;20451;-79
2022/06/26 03:38:59;;;;;;;30.03;27.47;;;21.10;99.90;;;;;;5082350;28;20445;-79
2022/06/26 03:41:26;;;;;;;31.97;29.03;;;21.10;99.90;;;;;;5082033;28;20543;-80
2022/06/26 03:43:53;;;;;;;28.17;25.67;;;21.20;99.90;;;;;;5081370;28;20494;-79
2022/06/26 03:46:20;;;;;;;29.80;27.20;;;21.20;99.90;;;;;;5081761;28;20455;-80
2022/06/26 03:48:47;;;;;;;30.97;28.07;;;21.20;99.90;;;;;;5081078;28;20449;-79
2022/06/26 03:51:15;;;;;;;29.27;26.27;;;21.20;99.90;;;;;;5082697;28;20479;-79
2022/06/26 03:53:43;;;;;;;28.97;26.23;;;21.20;99.90;;;;;;5082288;28;20444;-79
2022/06/26 03:56:10;;;;;;;28.47;25.83;;;21.30;99.90;;;;;;5083649;28;20456;-78
2022/06/26 03:58:37;;;;;;;30.30;27.30;;;21.30;99.90;;;;;;5095786;28;20437;-78
2022/06/26 04:01:03;;;;;;;30.40;27.63;;;21.30;99.90;;;;;;5095567;28;20479;-79
2022/06/26 04:03:30;;;;;;;30.20;27.40;;;21.40;99.90;;;;;;5093422;28;20507;-78
2022/06/26 04:05:57;;;;;;;27.90;25.30;;;21.40;99.90;;;;;;5089727;28;20472;-79
2022/06/26 04:08:24;;;;;;;27.43;25.03;;;21.50;99.90;;;;;;5089980;28;20471;-79
2022/06/26 04:10:52;;;;;;;27.00;24.60;;;21.50;99.90;;;;;;5090134;28;20515;-79
2022/06/26 04:13:19;;;;;;;28.00;25.67;;;21.60;99.90;;;;;;5091230;28;20444;-79
2022/06/26 04:15:46;;;;;;;27.67;25.27;;;21.50;99.90;;;;;;5090425;28;20490;-79
2022/06/26 04:18:12;;;;;;;27.77;25.17;;;21.90;99.90;;;;;;5090033;28;20455;-79
2022/06/26 04:20:39;;;;;;;26.10;23.93;;;21.60;99.90;;;;;;5090032;28;20471;-80
2022/06/26 04:23:08;;;;;;;29.23;26.67;;;21.60;99.90;;;;;;5089275;28;20477;-79
2022/06/26 04:25:36;;;;;;;27.90;25.40;;;21.70;99.90;;;;;;5090479;28;20437;-80
2022/06/26 04:28:06;;;;;;;26.67;24.27;;;21.70;99.90;;;;;;5087446;28;20449;-79
2022/06/26 04:30:33;;;;;;;27.67;25.07;;;21.80;99.90;;;;;;5084370;28;20464;-79
2022/06/26 04:32:59;;;;;;;27.37;24.97;;;21.80;99.90;;;;;;5086171;28;20440;-80
2022/06/26 04:35:27;;;;;;;26.57;24.03;;;21.70;99.90;;;;;;5086993;28;20445;-79
2022/06/26 04:37:53;;;;;;;25.13;22.93;;;22.00;99.90;;;;;;5083280;28;20448;-79
2022/06/26 04:40:20;;;;;;;25.77;23.37;;;22.10;99.90;;;;;;5083621;28;20469;-79
2022/06/26 04:42:47;;;;;;;26.77;24.30;;;22.20;99.90;;;;;;5082761;28;20477;-79
2022/06/26 04:45:15;;;;;;;26.60;24.30;;;22.20;99.90;;;;;;5081741;28;20449;-80
2022/06/26 04:47:42;;;;;;;26.00;23.40;;;22.30;99.90;;;;;;5082646;28;20449;-80
2022/06/26 04:50:09;;;;;;;25.40;23.20;;;22.30;99.90;;;;;;5082217;28;20456;-80
2022/06/26 04:52:36;;;;;;;23.27;21.20;;;22.40;99.90;;;;;;5080534;28;20453;-80
2022/06/26 04:55:04;;;;;;;25.67;23.43;;;22.40;99.90;;;;;;5079745;28;20449;-80
2022/06/26 04:57:31;;;;;;;23.37;21.27;;;22.40;99.90;;;;;;5080259;28;20471;-80
2022/06/26 04:59:58;;;;;;;23.53;21.23;;;22.40;99.90;;;;;;5080562;28;20928;-80
2022/06/26 05:02:26;;;;;;;26.07;23.73;;;22.40;99.90;;;;;;5078427;28;20487;-79
2022/06/26 05:04:53;;;;;;;26.47;24.27;;;22.50;99.90;;;;;;5080384;28;20456;-79
2022/06/26 05:07:19;;;;;;;22.47;20.47;;;22.40;99.90;;;;;;5082196;28;20448;-79
2022/06/26 05:09:46;;;;;;;25.33;22.80;;;22.60;99.90;;;;;;5082512;28;20451;-79
2022/06/26 05:12:13;;;;;;;22.53;20.73;;;22.50;99.90;;;;;;5083837;28;20474;-79
2022/06/26 05:14:39;;;;;;;24.30;22.20;;;22.50;99.90;;;;;;5085619;28;20459;-78
2022/06/26 05:17:06;;;;;;;22.13;20.33;;;22.50;99.90;;;;;;5088200;28;20437;-78
2022/06/26 05:19:34;;;;;;;23.90;21.80;;;22.60;99.90;;;;;;5087567;28;20441;-79
2022/06/26 05:22:02;;;;;;;25.03;22.40;;;23.00;99.90;;;;;;5086730;28;20839;-78
2022/06/26 05:24:29;;;;;;;23.93;21.80;;;22.70;99.90;;;;;;5085850;28;20494;-78
2022/06/26 05:26:58;;;;;;;25.33;23.00;;;22.70;99.90;;;;;;5085025;28;20497;-79
2022/06/26 05:29:25;;;;;;;25.47;23.40;;;22.70;99.90;;;;;;5085449;28;20506;-78
2022/06/26 05:31:52;;;;;;;23.20;21.20;;;22.70;99.90;;;;;;5083300;28;20552;-80
2022/06/26 05:34:19;;;;;;;23.70;21.67;;;22.70;99.90;;;;;;5083500;28;20444;-79
2022/06/26 05:36:48;;;;;;;23.73;21.83;;;22.70;99.90;;;;;;5085874;28;20558;-80
2022/06/26 05:39:14;;;;;;;23.60;21.70;;;22.70;99.90;;;;;;5088052;28;20487;-79
2022/06/26 05:41:41;;;;;;;22.47;20.67;;;22.70;99.90;;;;;;5087118;28;20495;-78
2022/06/26 05:44:08;;;;;;;23.23;21.23;;;22.80;99.90;;;;;;5086132;28;20476;-79
2022/06/26 05:46:35;;;;;;;22.27;20.20;;;22.80;99.90;;;;;;5092702;28;20456;-77
2022/06/26 05:49:02;;;;;;;21.07;19.40;;;22.80;99.90;;;;;;5082917;28;20449;-79
2022/06/26 05:51:29;;;;;;;21.50;19.73;;;22.80;99.90;;;;;;5082382;28;20512;-78
2022/06/26 05:53:57;;;;;;;20.10;18.40;;;22.80;99.90;;;;;;5082194;28;20441;-80
2022/06/26 05:56:24;;;;;;;20.80;18.90;;;22.80;99.90;;;;;;5083388;28;20453;-79
2022/06/26 05:58:51;;;;;;;19.20;17.57;;;22.90;99.90;;;;;;5083945;28;20445;-79
2022/06/26 06:01:17;;;;;;;18.57;16.93;;;22.90;99.90;;;;;;5084180;28;20468;-79
2022/06/26 06:03:44;;;;;;;19.97;18.10;;;23.10;99.90;;;;;;5085232;28;20480;-79
2022/06/26 06:06:11;;;;;;;20.70;18.90;;;23.20;99.90;;;;;;5084445;28;20458;-79
2022/06/26 06:08:38;;;;;;;19.80;18.10;;;23.30;99.90;;;;;;5084938;28;20445;-79
2022/06/26 06:11:06;;;;;;;17.53;16.13;;;23.40;99.90;;;;;;5083759;28;20515;-79
2022/06/26 06:13:33;;;;;;;21.70;19.60;;;23.50;99.90;;;;;;5082563;28;20476;-81
2022/06/26 06:15:59;;;;;;;18.20;16.70;;;23.60;99.90;;;;;;5080455;28;20801;-78
2022/06/26 06:18:26;;;;;;;16.77;15.40;;;23.70;99.90;;;;;;5082880;28;20424;-80
2022/06/26 06:20:53;;;;;;;18.57;16.93;;;23.80;99.90;;;;;;5084089;28;20465;-80
2022/06/26 06:23:20;;;;;;;14.73;13.53;;;23.90;99.90;;;;;;5084586;28;20477;-78
2022/06/26 06:25:47;;;;;;;14.67;13.50;;;23.90;99.90;;;;;;5084917;28;20449;-78
2022/06/26 06:28:15;;;;;;;12.30;11.40;;;24.00;99.90;;;;;;5082502;28;20449;-79
2022/06/26 06:30:43;;;;;;;13.27;12.37;;;24.10;99.90;;;;;;5081995;28;20473;-79
2022/06/26 06:33:10;;;;;;;13.00;12.10;;;24.10;99.90;;;;;;5083136;28;20441;-79
2022/06/26 06:35:37;;;;;;;13.23;12.23;;;24.30;99.90;;;;;;5082702;28;20459;-79
2022/06/26 06:38:04;;;;;;;12.83;11.73;;;24.30;99.90;;;;;;5081465;28;20449;-79
2022/06/26 06:40:31;;;;;;;13.70;12.60;;;24.40;99.90;;;;;;5082239;28;20475;-79
2022/06/26 06:42:58;;;;;;;14.80;13.50;;;24.40;99.90;;;;;;5081799;28;20504;-80
2022/06/26 06:45:26;;;;;;;28.77;26.17;;;24.40;99.90;;;;;;5077910;28;20967;-79
2022/06/26 06:47:53;;;;;;;17.67;16.20;;;24.90;99.90;;;;;;5080229;28;20456;-81
2022/06/26 06:50:20;;;;;;;14.17;12.97;;;24.70;99.90;;;;;;5081620;28;21013;-79
2022/06/26 06:52:47;;;;;;;13.90;12.70;;;24.70;99.90;;;;;;5080392;28;20471;-79
2022/06/26 06:55:14;;;;;;;15.60;14.10;;;24.80;99.90;;;;;;5080291;28;20453;-79
2022/06/26 06:57:40;;;;;;;14.90;13.70;;;24.90;99.90;;;;;;5080889;28;20467;-77
2022/06/26 07:00:08;;;;;;;25.67;23.30;;;25.00;99.90;;;;;;5081071;28;21002;-79
2022/06/26 07:02:39;;;;;;;15.73;14.23;;;25.10;99.90;;;;;;5081671;28;20453;-78
2022/06/26 07:05:07;;;;;;;14.63;13.50;;;25.20;99.90;;;;;;5082847;28;20908;-78
2022/06/26 07:07:34;;;;;;;23.70;21.50;;;25.20;99.90;;;;;;5081630;28;20451;-79
2022/06/26 07:10:01;;;;;;;14.43;13.13;;;25.20;99.90;;;;;;5080169;28;20567;-79
2022/06/26 07:12:28;;;;;;;13.93;12.87;;;25.30;99.90;;;;;;5079634;28;20818;-80
2022/06/26 07:14:55;;;;;;;11.93;11.00;;;25.40;99.90;;;;;;5080177;28;20447;-78
2022/06/26 07:17:22;;;;;;;13.10;11.77;;;25.50;99.90;;;;;;5080666;28;20444;-78
2022/06/26 07:19:51;;;;;;;11.70;10.90;;;25.50;99.90;;;;;;5081467;28;20453;-78
2022/06/26 07:22:17;;;;;;;32.10;28.90;;;25.70;99.90;;;;;;5080993;28;20440;-79
2022/06/26 07:24:44;;;;;;;11.03;10.13;;;25.80;99.90;;;;;;5080720;28;20491;-79
2022/06/26 07:27:11;;;;;;;12.87;11.77;;;25.80;99.90;;;;;;5080238;28;20444;-79
2022/06/26 07:29:38;;;;;;;10.10;9.40;;;25.90;99.90;;;;;;5080171;28;21013;-79
2022/06/26 07:32:05;;;;;;;157.70;132.20;;;26.00;99.90;;;;;;5079987;28;20445;-79
2022/06/26 07:34:32;;;;;;;67.17;57.93;;;26.10;99.90;;;;;;5080333;28;20510;-79
2022/06/26 07:37:00;;;;;;;11.43;10.53;;;26.20;99.90;;;;;;5079986;28;20445;-78
2022/06/26 07:39:27;;;;;;;39.27;35.07;;;26.20;99.90;;;;;;5080709;28;20475;-79
2022/06/26 07:41:54;;;;;;;11.57;10.47;;;26.30;99.90;;;;;;5079829;28;20502;-78
2022/06/26 07:44:21;;;;;;;10.10;9.30;;;26.30;99.90;;;;;;5080299;28;20855;-78
2022/06/26 07:46:48;;;;;;;15.40;14.00;;;26.30;99.90;;;;;;5080800;28;20471;-78
2022/06/26 07:49:14;;;;;;;9.10;8.40;;;26.30;99.90;;;;;;5080658;28;20445;-79
2022/06/26 07:51:41;;;;;;;11.30;10.20;;;26.40;99.90;;;;;;5080793;28;20473;-79
2022/06/26 07:54:10;;;;;;;11.40;10.40;;;26.40;99.90;;;;;;5081207;28;20441;-79
2022/06/26 07:56:37;;;;;;;14.50;13.20;;;26.50;99.90;;;;;;5080122;28;20445;-80
2022/06/26 07:59:04;;;;;;;8.80;8.20;;;26.50;99.90;;;;;;5080781;28;20448;-79
2022/06/26 08:01:30;;;;;;;12.10;9.33;;;26.40;99.90;;;;;;5087576;22;21018;-77
2022/06/26 08:03:57;;;;;;;10.00;9.10;;;26.50;99.90;;;;;;5052531;28;20481;-77
2022/06/26 08:06:24;;;;;;;8.73;8.03;;;26.50;99.90;;;;;;5052881;28;20852;-76
2022/06/26 08:08:51;;;;;;;8.47;7.97;;;26.50;99.90;;;;;;5053309;28;20456;-77
2022/06/26 08:11:20;;;;;;;7.93;7.43;;;26.60;99.90;;;;;;5053383;28;20469;-75
2022/06/26 08:13:46;;;;;;;11.63;10.47;;;26.50;99.90;;;;;;5053423;28;20449;-76
2022/06/26 08:16:14;;;;;;;7.93;7.43;;;27.00;99.90;;;;;;5052324;28;20445;-75
2022/06/26 08:18:41;;;;;;;10.40;9.57;;;26.60;99.90;;;;;;5052966;28;20453;-76
2022/06/26 08:23:53;;;;;;;11.27;10.17;;;26.80;99.90;;;;;;5054485;28;20452;-76
2022/06/26 08:26:21;;;;;;;9.60;8.80;;;26.90;99.90;;;;;;5052672;28;20449;-75
2022/06/26 08:28:48;;;;;;;8.83;8.10;;;26.90;99.90;;;;;;5052678;28;20453;-76
2022/06/26 08:31:15;;;;;;;9.50;8.70;;;26.90;99.90;;;;;;5053468;28;20470;-76
2022/06/26 08:33:42;;;;;;;12.63;11.23;;;27.00;99.90;;;;;;5053096;28;20441;-76
2022/06/26 08:36:09;;;;;;;10.83;9.83;;;27.10;99.90;;;;;;5053010;28;20957;-76
2022/06/26 08:38:36;;;;;;;11.40;10.50;;;27.20;99.90;;;;;;5052970;28;20438;-76
2022/06/26 08:41:03;;;;;;;8.90;8.20;;;27.30;99.90;;;;;;5053128;28;20462;-76
2022/06/26 08:43:31;;;;;;;8.83;8.10;;;27.30;99.90;;;;;;5056640;28;20481;-76
2022/06/26 08:45:59;;;;;;;12.10;11.20;;;27.30;99.90;;;;;;5056558;28;20511;-76
2022/06/26 08:48:27;;;;;;;9.43;8.73;;;27.30;99.90;;;;;;5055749;28;20822;-76
2022/06/26 08:50:54;;;;;;;9.47;8.77;;;27.20;99.90;;;;;;5056017;28;20565;-76
2022/06/26 08:53:22;;;;;;;8.70;7.93;;;27.20;99.90;;;;;;5056213;28;20805;-76
2022/06/26 08:55:50;;;;;;;8.30;7.60;;;27.20;99.90;;;;;;5056070;28;20911;-76
2022/06/26 08:58:17;;;;;;;8.83;8.03;;;27.30;99.90;;;;;;5056094;28;20532;-76
2022/06/26 09:00:46;;;;;;;9.33;8.63;;;27.40;99.90;;;;;;5055694;28;20488;-75
2022/06/26 09:03:14;;;;;;;9.43;8.63;;;27.30;99.90;;;;;;5056409;28;20457;-76
2022/06/26 09:05:41;;;;;;;9.13;8.17;;;27.40;99.90;;;;;;5056055;28;20477;-76
2022/06/26 09:08:17;;;;;;;10.40;9.50;;;27.40;99.90;;;;;;5056049;28;20453;-76
2022/06/26 09:10:45;;;;;;;14.20;12.97;;;27.50;99.90;;;;;;5056493;28;20469;-76
2022/06/26 09:13:12;;;;;;;15.47;14.17;;;27.50;99.90;;;;;;5055592;28;20452;-76
2022/06/26 09:15:40;;;;;;;11.40;10.50;;;27.60;99.90;;;;;;5056320;28;20452;-75
2022/06/26 09:18:10;;;;;;;10.10;9.30;;;27.70;99.90;;;;;;5056193;28;20537;-76
2022/06/26 09:20:49;;;;;;;11.43;10.20;;;27.70;99.90;;;;;;5056226;28;20488;-75
2022/06/26 09:23:16;;;;;;;11.73;10.67;;;27.70;99.90;;;;;;5056244;28;20425;-76
2022/06/26 09:25:44;;;;;;;10.67;9.87;;;27.80;99.90;;;;;;5055535;28;20492;-75
2022/06/26 09:28:13;;;;;;;11.47;10.43;;;27.90;99.90;;;;;;5055587;28;20446;-76
2022/06/26 09:30:50;;;;;;;11.07;10.27;;;28.10;99.90;;;;;;5057028;28;20476;-74
2022/06/26 09:33:19;;;;;;;9.50;8.80;;;28.10;99.90;;;;;;5055845;28;20520;-75
2022/06/26 09:35:47;;;;;;;15.17;13.87;;;28.10;99.90;;;;;;5056965;28;20804;-74
2022/06/26 09:38:19;;;;;;;15.90;14.40;;;28.10;99.90;;;;;;5056958;28;20454;-74
2022/06/26 09:40:47;;;;;;;16.70;15.20;;;28.10;99.90;;;;;;5055195;28;20860;-74
2022/06/26 09:43:23;;;;;;;11.77;10.97;;;28.10;99.90;;;;;;5055543;28;20797;-75
2022/06/26 09:45:52;;;;;;;13.97;12.73;;;27.90;99.90;;;;;;5057174;28;20469;-75
2022/06/26 09:48:22;;;;;;;10.13;9.33;;;27.90;99.90;;;;;;5056209;28;20438;-75
2022/06/26 09:50:49;;;;;;;9.57;8.67;;;27.90;99.90;;;;;;5058313;28;20462;-75
2022/06/26 09:53:17;;;;;;;10.43;9.57;;;28.00;99.90;;;;;;5055495;28;20560;-76
2022/06/26 09:55:44;;;;;;;12.13;11.13;;;28.10;99.90;;;;;;5055205;28;20445;-74
2022/06/26 09:58:12;;;;;;;12.73;11.47;;;28.30;99.90;;;;;;5054901;28;20453;-74
2022/06/26 10:00:40;;;;;;;9.53;8.83;;;28.40;99.90;;;;;;5054777;28;20473;-75
2022/06/26 10:08:43;;;;;;;9.33;8.63;;;28.40;99.90;;;;;;5054988;28;20414;-74
2022/06/26 10:11:10;;;;;;;13.17;11.80;;;28.30;99.90;;;;;;5054729;28;20523;-74
2022/06/26 10:13:40;;;;;;;11.40;10.53;;;28.30;99.90;;;;;;5054633;28;20453;-76
2022/06/26 10:16:26;;;;;;;8.33;7.83;;;28.20;99.90;;;;;;5054824;28;20450;-74
2022/06/26 10:19:11;;;;;;;8.60;8.00;;;28.00;99.90;;;;;;5054888;28;20429;-76
2022/06/26 10:21:39;;;;;;;14.90;13.53;;;27.90;99.90;;;;;;5054830;28;20469;-74
2022/06/26 10:24:07;;;;;;;14.63;13.37;;;28.00;99.90;;;;;;5054652;28;20482;-74
2022/06/26 10:26:35;;;;;;;13.20;12.10;;;27.90;99.90;;;;;;5055408;28;20445;-74
2022/06/26 10:29:04;;;;;;;11.37;10.47;;;28.00;99.90;;;;;;5054781;28;20472;-74
2022/06/26 10:31:33;;;;;;;9.50;8.70;;;28.00;99.90;;;;;;5054120;28;20469;-75
2022/06/26 10:34:16;;;;;;;8.90;8.20;;;28.10;99.90;;;;;;5055078;28;20527;-74
2022/06/26 10:36:56;;;;;;;9.47;8.67;;;28.10;99.90;;;;;;5055675;28;20434;-75
2022/06/26 10:39:23;;;;;;;9.00;8.30;;;28.20;99.90;;;;;;5054628;28;20958;-74
2022/06/26 10:44:42;;;;;;;8.73;8.13;;;28.30;99.90;;;;;;5053858;28;21086;-74
2022/06/26 10:47:16;;;;;;;8.37;7.77;;;28.20;99.90;;;;;;5054028;28;20438;-74
2022/06/26 10:49:50;;;;;;;8.70;8.00;;;28.20;99.90;;;;;;5054254;28;20430;-74
2022/06/26 10:52:26;;;;;;;9.83;9.07;;;28.30;99.90;;;;;;5054140;28;20473;-73
2022/06/26 10:54:54;;;;;;;8.30;7.70;;;28.50;99.90;;;;;;5054146;28;20430;-75
2022/06/26 10:57:35;;;;;;;8.80;8.10;;;28.80;99.90;;;;;;5053935;28;20430;-74
2022/06/26 11:00:04;;;;;;;8.80;8.00;;;29.10;99.90;;;;;;5052964;28;20434;-75
2022/06/26 11:02:36;;;;;;;9.10;8.40;;;29.10;99.90;;;;;;5053427;28;20457;-74
2022/06/26 11:05:04;;;;;;;8.03;7.37;;;29.00;99.90;;;;;;5052969;28;20539;-74
2022/06/26 11:07:46;;;;;;;8.10;7.60;;;28.80;99.90;;;;;;5053449;28;20442;-74
2022/06/26 11:10:17;;;;;;;8.40;7.80;;;28.90;99.90;;;;;;5053287;28;20465;-75
2022/06/26 11:12:46;;;;;;;8.40;7.70;;;28.90;99.90;;;;;;5053814;28;20446;-75
2022/06/26 11:15:24;;;;;;;9.03;8.43;;;28.90;99.90;;;;;;5054285;28;20893;-74
2022/06/26 11:17:59;;;;;;;12.10;11.00;;;28.90;99.90;;;;;;5053077;28;20449;-74
2022/06/26 11:23:19;;;;;;;8.10;7.50;;;29.00;99.90;;;;;;5053192;28;20429;-74
2022/06/26 11:25:46;;;;;;;8.57;7.90;;;29.00;99.90;;;;;;5053310;28;20481;-74
2022/06/26 11:28:13;;;;;;;9.53;7.70;;;29.00;99.90;;;;;;5053381;28;20488;-75
2022/06/26 11:30:42;;;;;;;8.10;7.57;;;29.10;99.90;;;;;;5053294;28;20495;-75
2022/06/26 11:33:10;;;;;;;8.50;7.93;;;29.10;99.90;;;;;;5053284;28;20449;-74
2022/06/26 11:35:37;;;;;;;9.33;8.73;;;29.20;99.90;;;;;;5054907;28;20442;-75
2022/06/26 11:38:14;;;;;;;8.93;8.23;;;29.30;99.90;;;;;;5053547;28;20453;-74
2022/06/26 11:40:44;;;;;;;8.40;7.80;;;29.20;99.90;;;;;;5053537;28;20560;-74
2022/06/26 11:43:12;;;;;;;13.30;12.20;;;29.30;99.90;;;;;;5053212;28;20442;-75
2022/06/26 11:45:40;;;;;;;7.47;6.93;;;29.40;99.90;;;;;;5053049;28;20481;-75
2022/06/26 11:48:09;;;;;;;27.73;25.23;;;29.40;99.90;;;;;;5053053;28;20445;-74
2022/06/26 11:50:37;;;;;;;15.50;14.20;;;29.50;99.90;;;;;;5053205;28;20473;-75
2022/06/26 11:53:05;;;;;;;7.80;7.30;;;29.40;99.90;;;;;;5053324;28;20824;-75
2022/06/26 11:55:33;;;;;;;8.67;7.77;;;29.40;99.90;;;;;;5053466;28;20802;-74
2022/06/26 11:58:02;;;;;;;12.37;11.27;;;29.30;99.90;;;;;;5052916;28;20457;-74
2022/06/26 12:00:29;;;;;;;12.40;11.50;;;29.40;99.90;;;;;;5052726;28;20478;-74
2022/06/26 12:02:56;;;;;;;10.47;9.77;;;29.40;99.90;;;;;;5052994;28;20452;-74
2022/06/26 12:05:25;;;;;;;9.13;8.43;;;29.50;99.90;;;;;;5052882;28;20481;-73
2022/06/26 12:07:54;;;;;;;12.57;11.57;;;29.50;99.90;;;;;;5052672;28;20453;-74
2022/06/26 12:10:30;;;;;;;12.03;11.13;;;29.50;99.90;;;;;;5052643;28;20481;-74
2022/06/26 12:12:57;;;;;;;11.67;10.67;;;29.40;99.90;;;;;;5052919;28;20434;-74
2022/06/26 12:15:26;;;;;;;11.63;10.83;;;29.20;99.90;;;;;;5053615;28;20441;-74
2022/06/26 12:17:55;;;;;;;10.40;9.60;;;29.20;99.90;;;;;;5057675;28;20890;-75
2022/06/26 12:20:22;;;;;;;17.77;15.97;;;29.30;99.90;;;;;;5056680;28;20469;-75
2022/06/26 12:22:51;;;;;;;21.10;18.90;;;29.40;99.90;;;;;;5057519;28;20823;-74
2022/06/26 12:25:26;;;;;;;11.20;10.30;;;29.60;99.90;;;;;;5057043;28;20485;-74
2022/06/26 12:27:52;;;;;;;8.53;7.93;;;29.60;99.90;;;;;;5056740;28;20950;-74
2022/06/26 12:30:20;;;;;;;9.07;8.50;;;29.70;99.90;;;;;;5056708;28;20446;-75
2022/06/26 12:32:49;;;;;;;8.57;8.03;;;29.90;99.90;;;;;;5057057;28;20460;-76
2022/06/26 12:35:16;;;;;;;16.87;15.07;;;29.90;99.90;;;;;;5056806;28;20441;-74
2022/06/26 12:37:42;;;;;;;11.30;10.40;;;30.00;99.90;;;;;;5056006;28;20445;-75
2022/06/26 12:40:10;;;;;;;11.03;10.10;;;30.00;99.90;;;;;;5055556;28;20454;-76
2022/06/26 12:42:37;;;;;;;8.53;7.93;;;30.00;99.90;;;;;;5054759;28;20453;-73
2022/06/26 12:45:05;;;;;;;10.63;9.63;;;30.00;99.90;;;;;;5055349;28;20935;-74
2022/06/26 12:47:32;;;;;;;7.70;7.07;;;30.10;99.90;;;;;;5055072;28;20449;-75
2022/06/26 12:50:00;;;;;;;8.60;7.97;;;30.20;99.90;;;;;;5056245;28;20484;-75
2022/06/26 12:52:26;;;;;;;10.13;9.23;;;30.10;99.90;;;;;;5056218;28;20465;-75
2022/06/26 12:54:53;;;;;;;8.17;7.63;;;30.10;99.90;;;;;;5056134;28;20457;-75